createdAt,value
2018-12-29T00:01:28.386Z,28.90
2018-12-29T00:03:59.122Z,30.00
2018-12-29T00:06:29.872Z,29.40
2018-12-29T00:09:00.653Z,29.33
2018-12-29T00:11:31.429Z,29.50
2018-12-29T00:14:02.263Z,31.33
2018-12-29T00:16:33.139Z,30.10
2018-12-29T00:19:03.973Z,29.17
2018-12-29T00:21:34.753Z,29.33
2018-12-29T00:24:05.526Z,28.13
2018-12-29T00:26:36.363Z,29.83
2018-12-29T00:29:07.165Z,29.53
2018-12-29T00:31:37.934Z,29.93
2018-12-29T00:34:08.760Z,28.87
2018-12-29T00:36:39.566Z,29.33
2018-12-29T00:39:10.317Z,29.40
2018-12-29T00:41:41.079Z,30.77
2018-12-29T00:44:11.911Z,32.23
2018-12-29T00:46:42.650Z,29.97
2018-12-29T00:49:13.372Z,31.23
2018-12-29T00:51:44.151Z,30.03
2018-12-29T00:54:15.298Z,30.50
2018-12-29T00:56:46.116Z,30.37
2018-12-29T00:59:17.040Z,29.37
2018-12-29T01:01:47.969Z,30.37
2018-12-29T01:04:18.760Z,31.00
2018-12-29T01:06:49.523Z,30.73
2018-12-29T01:09:20.245Z,30.40
2018-12-29T01:11:50.988Z,30.97
2018-12-29T01:14:21.714Z,30.53
2018-12-29T01:16:52.617Z,30.83
2018-12-29T01:19:23.365Z,29.83
2018-12-29T01:21:54.144Z,31.37
2018-12-29T01:24:24.871Z,31.30
2018-12-29T01:26:55.705Z,31.43
2018-12-29T01:29:26.502Z,31.67
2018-12-29T01:31:57.251Z,30.43
2018-12-29T01:34:28.088Z,30.77
2018-12-29T01:36:58.873Z,27.90
2018-12-29T01:39:29.629Z,28.87
2018-12-29T01:42:00.381Z,29.00
2018-12-29T01:44:31.266Z,30.53
2018-12-29T01:47:03.396Z,29.37
2018-12-29T01:49:34.133Z,32.23
2018-12-29T01:52:05.011Z,30.47
2018-12-29T01:54:35.728Z,31.27
2018-12-29T01:57:06.582Z,30.73
2018-12-29T01:59:37.358Z,29.43
2018-12-29T02:02:08.099Z,30.33
2018-12-29T02:04:38.820Z,31.10
2018-12-29T02:07:09.595Z,31.17
2018-12-29T02:09:40.406Z,30.27
2018-12-29T02:12:11.139Z,31.27
2018-12-29T02:14:41.887Z,30.77
2018-12-29T02:17:15.604Z,31.93
2018-12-29T02:19:46.395Z,32.83
2018-12-29T02:22:17.176Z,31.43
2018-12-29T02:24:47.918Z,29.70
2018-12-29T02:27:18.662Z,30.93
2018-12-29T02:29:49.527Z,31.03
2018-12-29T02:32:20.298Z,28.03
2018-12-29T02:34:51.016Z,30.90
2018-12-29T02:37:21.785Z,30.53
2018-12-29T02:39:52.550Z,30.00
2018-12-29T02:42:23.309Z,30.27
2018-12-29T02:44:54.061Z,31.90
2018-12-29T02:47:24.813Z,31.20
2018-12-29T02:49:55.555Z,30.87
2018-12-29T02:52:26.349Z,30.03
2018-12-29T02:54:57.059Z,30.23
2018-12-29T02:57:27.916Z,28.93
2018-12-29T02:59:58.621Z,30.80
2018-12-29T03:02:32.407Z,31.47
2018-12-29T03:05:03.146Z,30.63
2018-12-29T03:07:33.904Z,29.23
2018-12-29T03:10:04.827Z,30.07
2018-12-29T03:12:35.558Z,30.17
2018-12-29T03:15:06.457Z,29.03
2018-12-29T03:17:37.226Z,31.43
2018-12-29T03:20:07.967Z,30.93
2018-12-29T03:22:38.720Z,29.03
2018-12-29T03:25:09.455Z,30.10
2018-12-29T03:27:40.346Z,29.37
2018-12-29T03:30:11.082Z,28.93
2018-12-29T03:32:41.821Z,30.90
2018-12-29T03:35:12.562Z,30.27
2018-12-29T03:37:43.336Z,30.17
2018-12-29T03:40:14.205Z,30.13
2018-12-29T03:42:45.047Z,31.73
2018-12-29T03:45:15.881Z,28.93
2018-12-29T03:47:46.635Z,29.53
2018-12-29T03:50:17.392Z,30.07
2018-12-29T03:52:48.426Z,30.83
2018-12-29T03:55:19.133Z,30.33
2018-12-29T03:57:49.892Z,29.77
2018-12-29T04:00:20.613Z,29.63
2018-12-29T04:02:51.399Z,30.73
2018-12-29T04:05:22.182Z,31.37
2018-12-29T04:07:52.935Z,31.90
2018-12-29T04:10:23.630Z,29.57
2018-12-29T04:12:58.807Z,32.43
2018-12-29T04:15:29.670Z,31.33
2018-12-29T04:18:00.454Z,30.53
2018-12-29T04:20:31.192Z,30.07
2018-12-29T04:23:01.937Z,31.13
2018-12-29T04:25:32.669Z,32.53
2018-12-29T04:28:03.563Z,31.77
2018-12-29T04:30:34.330Z,33.17
2018-12-29T04:33:05.112Z,29.67
2018-12-29T04:35:35.845Z,30.87
2018-12-29T04:38:06.680Z,32.57
2018-12-29T04:40:37.415Z,31.87
2018-12-29T04:43:10.943Z,32.00
2018-12-29T04:45:41.792Z,32.87
2018-12-29T04:48:12.650Z,31.10
2018-12-29T04:50:43.378Z,31.27
2018-12-29T04:53:14.160Z,30.67
2018-12-29T04:55:44.892Z,31.27
2018-12-29T04:58:15.746Z,31.23
2018-12-29T05:00:46.471Z,32.27
2018-12-29T05:03:17.248Z,31.73
2018-12-29T05:05:47.969Z,31.37
2018-12-29T05:08:18.825Z,30.63
2018-12-29T05:10:49.949Z,30.77
2018-12-29T05:13:20.808Z,32.30
2018-12-29T05:15:51.575Z,30.10
2018-12-29T05:18:22.305Z,30.87
2018-12-29T05:20:53.098Z,30.43
2018-12-29T05:23:23.864Z,31.43
2018-12-29T05:25:54.615Z,30.00
2018-12-29T05:28:25.378Z,30.73
2018-12-29T05:30:56.123Z,30.37
2018-12-29T05:33:26.961Z,31.43
2018-12-29T05:35:57.715Z,30.27
2018-12-29T05:38:28.419Z,30.53
2018-12-29T05:40:59.175Z,30.53
2018-12-29T05:43:30.000Z,30.10
2018-12-29T05:46:00.736Z,32.27
2018-12-29T05:48:31.441Z,30.73
2018-12-29T05:51:02.195Z,31.60
2018-12-29T05:53:33.022Z,31.13
2018-12-29T05:56:03.768Z,31.97
2018-12-29T05:58:34.494Z,30.70
2018-12-29T06:01:05.303Z,33.73
2018-12-29T06:03:36.128Z,31.50
2018-12-29T06:06:06.941Z,32.53
2018-12-29T06:08:37.665Z,32.93
2018-12-29T06:11:08.367Z,33.60
2018-12-29T06:13:39.439Z,34.30
2018-12-29T06:16:10.304Z,34.17
2018-12-29T06:18:41.027Z,33.80
2018-12-29T06:21:11.832Z,34.23
2018-12-29T06:23:42.582Z,32.57
2018-12-29T06:26:13.343Z,33.67
2018-12-29T06:28:44.251Z,34.20
2018-12-29T06:31:14.990Z,34.40
2018-12-29T06:33:45.831Z,33.80
2018-12-29T06:36:16.613Z,33.67
2018-12-29T06:38:47.415Z,34.67
2018-12-29T06:41:18.111Z,33.67
2018-12-29T06:43:48.857Z,33.00
2018-12-29T06:46:19.566Z,32.87
2018-12-29T06:48:50.385Z,31.50
2018-12-29T06:51:21.137Z,33.63
2018-12-29T06:53:51.901Z,31.77
2018-12-29T06:56:22.625Z,32.77
2018-12-29T06:58:53.553Z,34.17
2018-12-29T07:01:24.278Z,33.70
2018-12-29T07:03:55.035Z,33.00
2018-12-29T07:06:25.776Z,33.43
2018-12-29T07:08:56.569Z,31.87
2018-12-29T07:11:27.316Z,30.63
2018-12-29T07:13:58.081Z,34.80
2018-12-29T07:16:28.902Z,34.20
2018-12-29T07:18:59.768Z,32.33
2018-12-29T07:21:30.466Z,32.57
2018-12-29T07:24:01.570Z,31.47
2018-12-29T07:26:32.313Z,34.10
2018-12-29T07:29:04.160Z,32.87
2018-12-29T07:31:34.921Z,31.57
2018-12-29T07:34:05.774Z,32.13
2018-12-29T07:36:36.492Z,31.70
2018-12-29T07:39:08.541Z,30.90
2018-12-29T07:41:39.264Z,31.90
2018-12-29T07:44:10.010Z,32.53
2018-12-29T07:46:40.773Z,31.83
2018-12-29T07:49:11.574Z,32.80
2018-12-29T07:51:42.371Z,31.63
2018-12-29T07:54:13.104Z,31.87
2018-12-29T07:56:43.814Z,32.07
2018-12-29T07:59:14.578Z,32.63
2018-12-29T08:01:45.313Z,33.00
2018-12-29T08:04:16.071Z,33.37
2018-12-29T08:06:46.801Z,34.77
2018-12-29T08:09:17.686Z,33.33
2018-12-29T08:11:48.460Z,34.03
2018-12-29T08:14:19.180Z,34.20
2018-12-29T08:16:56.677Z,34.03
2018-12-29T08:19:22.360Z,35.37
2018-12-29T08:21:53.108Z,34.17
2018-12-29T08:24:23.916Z,34.10
2018-12-29T08:26:54.610Z,35.30
2018-12-29T08:29:25.507Z,34.20
2018-12-29T08:31:56.259Z,35.03
2018-12-29T08:34:27.061Z,33.87
2018-12-29T08:36:57.791Z,34.63
2018-12-29T08:39:28.549Z,33.20
2018-12-29T08:41:59.311Z,34.23
2018-12-29T08:44:30.163Z,33.23
2018-12-29T08:47:04.475Z,34.80
2018-12-29T08:49:33.363Z,32.70
2018-12-29T08:52:04.174Z,33.40
2018-12-29T08:54:35.003Z,35.17
2018-12-29T08:57:05.742Z,34.47
2018-12-29T08:59:36.489Z,34.33
2018-12-29T09:02:07.217Z,34.37
2018-12-29T09:04:37.986Z,33.67
2018-12-29T09:07:08.796Z,33.87
2018-12-29T09:09:39.618Z,33.93
2018-12-29T09:12:10.399Z,32.30
2018-12-29T09:14:41.321Z,31.87
2018-12-29T09:17:12.522Z,31.80
2018-12-29T09:19:43.394Z,30.13
2018-12-29T09:22:14.090Z,32.77
2018-12-29T09:24:44.844Z,34.47
2018-12-29T09:27:15.553Z,32.43
2018-12-29T09:29:46.378Z,31.47
2018-12-29T09:32:17.157Z,31.80
2018-12-29T09:34:47.987Z,32.37
2018-12-29T09:37:18.868Z,31.20
2018-12-29T09:39:49.638Z,30.23
2018-12-29T09:42:20.373Z,30.40
2018-12-29T09:44:51.153Z,31.40
2018-12-29T09:47:22.033Z,29.87
2018-12-29T09:49:52.787Z,30.50
2018-12-29T09:52:23.510Z,29.00
2018-12-29T09:54:54.307Z,30.20
2018-12-29T09:57:25.093Z,28.77
2018-12-29T09:59:55.896Z,30.13
2018-12-29T10:02:26.679Z,28.30
2018-12-29T10:04:57.610Z,30.43
2018-12-29T10:07:28.347Z,28.43
2018-12-29T10:09:59.105Z,30.60
2018-12-29T10:12:29.838Z,28.30
2018-12-29T10:15:00.664Z,29.97
2018-12-29T10:17:31.386Z,27.10
2018-12-29T10:20:02.176Z,29.00
2018-12-29T10:22:32.932Z,28.93
2018-12-29T10:25:03.819Z,28.30
2018-12-29T10:27:34.531Z,30.53
2018-12-29T10:30:05.633Z,28.53
2018-12-29T10:32:36.404Z,29.43
2018-12-29T10:35:07.175Z,28.27
2018-12-29T10:37:37.915Z,28.50
2018-12-29T10:40:08.836Z,28.90
2018-12-29T10:42:39.611Z,29.67
2018-12-29T10:45:10.354Z,29.03
2018-12-29T10:47:41.094Z,30.77
2018-12-29T10:50:11.908Z,30.17
2018-12-29T10:52:42.643Z,31.90
2018-12-29T10:55:13.665Z,30.17
2018-12-29T10:57:44.424Z,33.00
2018-12-29T11:00:15.203Z,30.30
2018-12-29T11:02:46.100Z,29.33
2018-12-29T11:05:17.020Z,31.50
2018-12-29T11:07:47.727Z,30.10
2018-12-29T11:10:18.574Z,29.63
2018-12-29T11:12:49.372Z,28.87
2018-12-29T11:15:20.192Z,30.40
2018-12-29T11:17:50.915Z,30.77
2018-12-29T11:20:21.748Z,29.93
2018-12-29T11:22:52.629Z,29.70
2018-12-29T11:25:23.364Z,30.63
2018-12-29T11:27:54.174Z,28.63
2018-12-29T11:30:24.914Z,30.13
2018-12-29T11:32:55.793Z,28.67
2018-12-29T11:35:29.008Z,30.20
2018-12-29T11:37:59.011Z,27.57
2018-12-29T11:40:29.815Z,28.57
2018-12-29T11:43:00.635Z,28.37
2018-12-29T11:45:31.356Z,27.30
2018-12-29T11:48:02.126Z,27.93
2018-12-29T11:50:32.878Z,28.13
2018-12-29T11:53:03.721Z,27.17
2018-12-29T11:55:34.999Z,26.13
2018-12-29T11:58:05.806Z,26.80
2018-12-29T12:00:36.570Z,25.57
2018-12-29T12:03:07.356Z,25.40
2018-12-29T12:05:38.090Z,25.03
2018-12-29T12:08:09.272Z,26.87
2018-12-29T12:10:40.008Z,26.20
2018-12-29T12:13:10.887Z,25.47
2018-12-29T12:15:41.687Z,24.70
2018-12-29T12:18:12.500Z,25.23
2018-12-29T12:20:43.334Z,24.00
2018-12-29T12:23:14.119Z,25.20
2018-12-29T12:25:44.844Z,24.93
2018-12-29T12:28:15.809Z,23.57
2018-12-29T12:30:46.597Z,24.17
2018-12-29T12:33:17.643Z,23.00
2018-12-29T12:35:48.512Z,23.57
2018-12-29T12:38:19.592Z,23.07
2018-12-29T12:40:50.509Z,23.50
2018-12-29T12:43:21.710Z,22.40
2018-12-29T12:45:52.709Z,24.07
2018-12-29T12:48:23.503Z,23.70
2018-12-29T12:50:54.515Z,24.97
2018-12-29T12:53:25.302Z,24.73
2018-12-29T12:55:56.023Z,23.43
2018-12-29T12:58:27.027Z,22.73
2018-12-29T13:00:58.027Z,23.77
2018-12-29T13:03:29.166Z,22.93
2018-12-29T13:05:59.885Z,23.97
2018-12-29T13:08:30.671Z,22.60
2018-12-29T13:11:01.423Z,24.27
2018-12-29T13:13:32.315Z,24.00
2018-12-29T13:16:03.086Z,23.40
2018-12-29T13:18:33.877Z,22.23
2018-12-29T13:21:04.839Z,23.67
2018-12-29T13:23:35.609Z,24.60
2018-12-29T13:26:06.863Z,24.63
2018-12-29T13:28:37.634Z,23.90
2018-12-29T13:31:08.435Z,23.57
2018-12-29T13:33:40.269Z,23.17
2018-12-29T13:36:11.040Z,23.47
2018-12-29T13:38:41.829Z,23.87
2018-12-29T13:41:12.614Z,22.03
2018-12-29T13:43:43.481Z,21.63
2018-12-29T13:46:14.296Z,23.03
2018-12-29T13:48:45.140Z,21.23
2018-12-29T13:51:15.912Z,21.73
2018-12-29T13:53:46.754Z,21.93
2018-12-29T13:56:17.488Z,23.03
2018-12-29T13:58:48.283Z,22.73
2018-12-29T14:01:19.060Z,23.43
2018-12-29T14:03:49.816Z,22.63
2018-12-29T14:06:20.555Z,23.60
2018-12-29T14:08:51.620Z,22.47
2018-12-29T14:11:22.371Z,24.27
2018-12-29T14:13:53.185Z,23.70
2018-12-29T14:16:24.031Z,24.20
2018-12-29T14:18:55.072Z,23.90
2018-12-29T14:21:25.826Z,23.90
2018-12-29T14:23:56.655Z,23.90
2018-12-29T14:26:27.445Z,22.13
2018-12-29T14:28:58.376Z,22.93
2018-12-29T14:31:29.166Z,21.03
2018-12-29T14:33:59.960Z,21.33
2018-12-29T14:36:30.965Z,20.10
2018-12-29T14:39:01.737Z,21.57
2018-12-29T14:41:32.517Z,19.20
2018-12-29T14:44:03.419Z,20.67
2018-12-29T14:46:34.228Z,20.33
2018-12-29T14:49:05.054Z,20.20
2018-12-29T14:51:35.870Z,20.00
2018-12-29T14:54:07.102Z,19.80
2018-12-29T14:56:37.870Z,18.67
2018-12-29T14:59:08.602Z,18.10
2018-12-29T15:01:39.671Z,18.77
2018-12-29T15:04:10.642Z,16.97
2018-12-29T15:06:41.442Z,17.20
2018-12-29T15:09:12.206Z,18.07
2018-12-29T15:11:42.970Z,17.77
2018-12-29T15:14:13.794Z,17.83
2018-12-29T15:16:44.825Z,18.10
2018-12-29T15:19:15.590Z,18.40
2018-12-29T15:21:46.444Z,17.53
2018-12-29T15:24:17.250Z,17.30
2018-12-29T15:26:48.000Z,16.53
2018-12-29T15:29:19.055Z,17.27
2018-12-29T15:31:49.788Z,16.17
2018-12-29T15:34:20.572Z,17.80
2018-12-29T15:36:51.307Z,17.80
2018-12-29T15:39:22.382Z,20.40
2018-12-29T15:41:53.166Z,23.18
2018-12-29T15:44:24.053Z,20.63
2018-12-29T15:46:55.161Z,17.73
2018-12-29T15:49:26.006Z,17.50
2018-12-29T15:51:56.720Z,17.20
2018-12-29T15:54:27.488Z,16.80
2018-12-29T15:56:58.212Z,16.80
2018-12-29T15:59:29.323Z,16.07
2018-12-29T16:02:00.089Z,17.53
2018-12-29T16:04:30.831Z,17.03
2018-12-29T16:07:01.714Z,17.50
2018-12-29T16:09:32.904Z,17.87
2018-12-29T16:12:03.721Z,15.77
2018-12-29T16:14:35.503Z,17.67
2018-12-29T16:17:06.438Z,18.50
2018-12-29T16:19:37.297Z,17.17
2018-12-29T16:22:08.037Z,15.77
2018-12-29T16:24:38.791Z,16.27
2018-12-29T16:27:09.829Z,14.87
2018-12-29T16:29:40.581Z,18.33
2018-12-29T16:32:11.284Z,17.27
2018-12-29T16:34:42.068Z,16.13
2018-12-29T16:37:12.888Z,16.73
2018-12-29T16:39:43.923Z,15.90
2018-12-29T16:42:14.789Z,17.53
2018-12-29T16:44:45.586Z,16.57
2018-12-29T16:47:16.362Z,18.03
2018-12-29T16:49:47.267Z,17.37
2018-12-29T16:52:18.360Z,16.97
2018-12-29T16:54:49.172Z,17.57
2018-12-29T16:57:20.024Z,17.83
2018-12-29T16:59:50.820Z,17.93
2018-12-29T17:02:21.931Z,15.90
2018-12-29T17:04:52.685Z,21.50
2018-12-29T17:07:23.459Z,22.40
2018-12-29T17:09:54.321Z,20.80
2018-12-29T17:12:25.169Z,18.20
2018-12-29T17:14:55.963Z,16.63
2018-12-29T17:17:26.738Z,15.27
2018-12-29T17:19:57.681Z,14.97
2018-12-29T17:22:28.502Z,14.57
2018-12-29T17:24:59.277Z,14.50
2018-12-29T17:27:30.037Z,13.67
2018-12-29T17:30:01.267Z,14.33
2018-12-29T17:32:32.174Z,13.77
2018-12-29T17:35:02.952Z,15.23
2018-12-29T17:37:34.441Z,15.03
2018-12-29T17:40:05.620Z,15.37
2018-12-29T17:42:36.385Z,15.47
2018-12-29T17:45:07.677Z,16.00
2018-12-29T17:47:38.496Z,16.90
2018-12-29T17:50:09.359Z,17.60
2018-12-29T17:52:40.291Z,18.03
2018-12-29T17:55:11.396Z,18.87
2018-12-29T17:57:42.366Z,19.33
2018-12-29T18:00:13.163Z,19.40
2018-12-29T18:02:43.974Z,19.77
2018-12-29T18:05:14.809Z,20.23
2018-12-29T18:07:45.589Z,21.17
2018-12-29T18:10:16.421Z,22.13
2018-12-29T18:12:47.237Z,22.17
2018-12-29T18:15:18.031Z,21.83
2018-12-29T18:17:48.967Z,23.57
2018-12-29T18:20:19.907Z,23.23
2018-12-29T18:22:50.665Z,22.83
2018-12-29T18:25:21.409Z,23.97
2018-12-29T18:27:52.359Z,24.37
2018-12-29T18:30:23.215Z,24.27
2018-12-29T18:32:53.981Z,24.33
2018-12-29T18:35:24.861Z,25.17
2018-12-29T18:37:55.789Z,25.77
2018-12-29T18:40:26.697Z,25.60
2018-12-29T18:42:57.501Z,27.10
2018-12-29T18:45:28.585Z,27.63
2018-12-29T18:47:59.452Z,26.67
2018-12-29T18:50:30.187Z,27.37
2018-12-29T18:53:01.098Z,27.80
2018-12-29T18:55:32.071Z,29.67
2018-12-29T18:58:03.318Z,28.33
2018-12-29T19:00:34.104Z,28.57
2018-12-29T19:03:04.907Z,28.20
2018-12-29T19:05:35.637Z,29.07
2018-12-29T19:08:06.567Z,30.03
2018-12-29T19:10:37.357Z,29.37
2018-12-29T19:13:08.490Z,30.10
2018-12-29T19:15:39.638Z,30.17
2018-12-29T19:18:10.451Z,29.93
2018-12-29T19:20:41.224Z,30.17
2018-12-29T19:23:12.456Z,30.50
2018-12-29T19:25:43.177Z,29.77
2018-12-29T19:28:14.272Z,29.83
2018-12-29T19:30:45.087Z,30.53
2018-12-29T19:33:16.133Z,30.50
2018-12-29T19:35:47.139Z,30.73
2018-12-29T19:38:18.215Z,31.47
2018-12-29T19:40:51.030Z,30.97
2018-12-29T19:43:21.906Z,29.33
2018-12-29T19:45:52.777Z,30.47
2018-12-29T19:48:25.099Z,31.37
2018-12-29T19:50:56.204Z,31.87
2018-12-29T19:53:27.330Z,31.87
2018-12-29T19:55:58.183Z,30.80
2018-12-29T19:58:28.988Z,31.33
2018-12-29T20:00:59.851Z,30.80
2018-12-29T20:03:30.688Z,31.03
2018-12-29T20:06:01.434Z,32.40
2018-12-29T20:08:32.646Z,31.17
2018-12-29T20:11:03.558Z,31.60
2018-12-29T20:13:34.406Z,31.30
2018-12-29T20:16:05.799Z,31.90
2018-12-29T20:18:36.735Z,28.97
2018-12-29T20:21:07.476Z,30.87
2018-12-29T20:23:38.294Z,28.00
2018-12-29T20:26:09.071Z,29.47
2018-12-29T20:28:39.893Z,28.60
2018-12-29T20:31:10.967Z,27.43
2018-12-29T20:33:41.769Z,28.07
2018-12-29T20:36:12.501Z,25.00
2018-12-29T20:38:43.292Z,22.80
2018-12-29T20:41:14.020Z,21.10
2018-12-29T20:43:44.946Z,22.23
2018-12-29T20:46:15.842Z,20.70
2018-12-29T20:48:46.609Z,21.20
2018-12-29T20:51:17.528Z,21.37
2018-12-29T20:53:48.716Z,19.80
2018-12-29T20:56:19.516Z,20.60
2018-12-29T20:58:50.323Z,18.23
2018-12-29T21:01:21.106Z,17.07
2018-12-29T21:03:51.896Z,16.90
2018-12-29T21:06:22.965Z,15.67
2018-12-29T21:08:53.724Z,14.27
2018-12-29T21:11:24.544Z,11.83
2018-12-29T21:13:55.402Z,10.13
2018-12-29T21:16:26.183Z,10.00
2018-12-29T21:18:57.059Z,9.13
2018-12-29T21:21:27.831Z,9.00
2018-12-29T21:23:58.606Z,6.93
2018-12-29T21:26:29.382Z,7.73
2018-12-29T21:29:00.355Z,6.20
2018-12-29T21:31:31.112Z,5.50
2018-12-29T21:34:01.919Z,4.90
2018-12-29T21:36:32.776Z,3.73
2018-12-29T21:39:04.486Z,4.50
2018-12-29T21:41:35.654Z,4.20
2018-12-29T21:44:06.483Z,4.07
2018-12-29T21:46:37.278Z,4.63
2018-12-29T21:49:08.077Z,3.30
2018-12-29T21:51:38.878Z,3.90
2018-12-29T21:54:09.664Z,4.33
2018-12-29T21:56:40.523Z,3.60
2018-12-29T21:59:11.395Z,3.83
2018-12-29T22:01:42.173Z,3.27
2018-12-29T22:04:12.964Z,5.03
2018-12-29T22:06:43.823Z,5.23
2018-12-29T22:09:14.627Z,4.07
2018-12-29T22:11:45.360Z,4.20
2018-12-29T22:14:16.118Z,5.50
2018-12-29T22:16:47.161Z,4.33
2018-12-29T22:19:17.910Z,3.90
2018-12-29T22:21:48.690Z,3.63
2018-12-29T22:24:19.474Z,3.80
2018-12-29T22:26:50.247Z,3.60
2018-12-29T22:29:21.209Z,4.17
2018-12-29T22:31:52.038Z,3.73
2018-12-29T22:34:22.830Z,3.97
2018-12-29T22:36:53.559Z,4.10
2018-12-29T22:39:24.362Z,3.87
2018-12-29T22:41:55.170Z,3.50
2018-12-29T22:44:25.956Z,4.43
2018-12-29T22:46:56.701Z,3.60
2018-12-29T22:49:27.502Z,4.40
2018-12-29T22:51:58.563Z,5.10
2018-12-29T22:54:29.389Z,4.57
2018-12-29T22:57:00.210Z,3.90
2018-12-29T22:59:30.974Z,4.67
2018-12-29T23:02:01.733Z,4.00
2018-12-29T23:04:32.503Z,4.20
2018-12-29T23:07:03.480Z,3.63
2018-12-29T23:09:34.310Z,4.07
2018-12-29T23:12:06.453Z,3.47
2018-12-29T23:14:37.340Z,4.87
2018-12-29T23:17:08.399Z,3.70
2018-12-29T23:19:39.149Z,3.57
2018-12-29T23:22:09.921Z,4.43
2018-12-29T23:24:40.838Z,4.67
2018-12-29T23:27:11.574Z,4.17
2018-12-29T23:29:42.416Z,4.50
2018-12-29T23:32:13.217Z,4.67
2018-12-29T23:34:43.991Z,3.93
2018-12-29T23:37:14.894Z,4.13
2018-12-29T23:39:45.705Z,4.00
2018-12-29T23:42:16.547Z,4.83
2018-12-29T23:44:47.291Z,4.73
2018-12-29T23:47:18.140Z,4.33
2018-12-29T23:49:49.023Z,4.93
2018-12-29T23:52:20.110Z,4.07
2018-12-29T23:54:51.124Z,3.87
2018-12-29T23:57:22.217Z,4.10
2018-12-29T23:59:53.361Z,4.60
